createdAt,value
2018-02-18T00:00:02.726Z,2.10
2018-02-18T00:02:30.164Z,2.10
2018-02-18T00:04:58.473Z,2.10
2018-02-18T00:07:26.017Z,2.10
2018-02-18T00:09:53.627Z,2.10
2018-02-18T00:12:21.593Z,2.10
2018-02-18T00:14:49.118Z,2.10
2018-02-18T00:17:17.151Z,2.00
2018-02-18T00:19:45.745Z,2.00
2018-02-18T00:22:15.535Z,2.00
2018-02-18T00:24:43.039Z,2.00
2018-02-18T00:27:11.141Z,2.00
2018-02-18T00:29:38.601Z,1.90
2018-02-18T00:32:06.057Z,1.90
2018-02-18T00:34:34.094Z,1.90
2018-02-18T00:37:01.557Z,1.80
2018-02-18T00:42:05.852Z,1.80
2018-02-18T00:44:34.141Z,1.80
2018-02-18T00:47:01.980Z,1.80
2018-02-18T00:49:30.302Z,1.70
2018-02-18T00:51:57.813Z,1.70
2018-02-18T00:54:25.867Z,1.70
2018-02-18T00:56:53.308Z,1.70
2018-02-18T00:59:20.788Z,1.70
2018-02-18T01:01:48.229Z,1.70
2018-02-18T01:04:15.696Z,1.70
2018-02-18T01:06:43.207Z,1.70
2018-02-18T01:09:10.648Z,1.60
2018-02-18T01:11:38.263Z,1.60
2018-02-18T01:14:05.712Z,1.60
2018-02-18T01:16:33.213Z,1.60
2018-02-18T01:19:01.857Z,1.60
2018-02-18T01:21:29.325Z,1.60
2018-02-18T01:23:56.781Z,1.60
2018-02-18T01:26:24.303Z,1.60
2018-02-18T01:28:52.302Z,1.60
2018-02-18T01:31:20.270Z,1.50
2018-02-18T01:33:48.029Z,1.50
2018-02-18T01:36:15.751Z,1.50
2018-02-18T01:38:43.493Z,1.50
2018-02-18T01:41:11.954Z,1.40
2018-02-18T01:43:39.394Z,1.40
2018-02-18T01:46:06.901Z,1.40
2018-02-18T01:48:34.388Z,1.40
2018-02-18T01:51:01.896Z,1.40
2018-02-18T01:53:30.353Z,1.40
2018-02-18T01:55:58.423Z,1.40
2018-02-18T01:58:25.963Z,1.40
2018-02-18T02:00:53.889Z,1.40
2018-02-18T02:03:21.372Z,1.40
2018-02-18T02:05:48.921Z,1.30
2018-02-18T02:08:17.349Z,1.30
2018-02-18T02:10:44.814Z,1.30
2018-02-18T02:13:13.035Z,1.30
2018-02-18T02:15:40.592Z,1.30
2018-02-18T02:18:08.506Z,1.30
2018-02-18T02:20:36.006Z,1.30
2018-02-18T02:23:03.453Z,1.30
2018-02-18T02:25:30.933Z,1.20
2018-02-18T02:27:58.980Z,1.20
2018-02-18T02:30:27.197Z,1.10
2018-02-18T02:32:54.690Z,1.10
2018-02-18T02:35:23.525Z,1.10
2018-02-18T02:37:50.977Z,1.00
2018-02-18T02:40:18.880Z,1.00
2018-02-18T02:42:46.321Z,1.00
2018-02-18T02:45:13.873Z,1.00
2018-02-18T02:47:41.318Z,1.00
2018-02-18T02:50:08.796Z,0.90
2018-02-18T02:52:36.402Z,0.90
2018-02-18T02:55:05.154Z,0.90
2018-02-18T02:57:33.529Z,0.90
2018-02-18T03:00:00.975Z,0.90
2018-02-18T03:02:28.448Z,0.90
2018-02-18T03:04:55.976Z,0.90
2018-02-18T03:07:24.221Z,0.90
2018-02-18T03:09:51.704Z,0.80
2018-02-18T03:12:19.165Z,0.80
2018-02-18T03:14:46.616Z,0.80
2018-02-18T03:17:14.685Z,0.80
2018-02-18T03:19:42.123Z,0.80
2018-02-18T03:22:09.572Z,0.80
2018-02-18T03:24:37.156Z,0.80
2018-02-18T03:27:04.766Z,0.80
2018-02-18T03:29:33.333Z,0.80
2018-02-18T03:32:00.777Z,0.70
2018-02-18T03:34:28.447Z,0.80
2018-02-18T03:36:55.909Z,0.80
2018-02-18T03:39:23.765Z,0.70
2018-02-18T03:41:51.214Z,0.70
2018-02-18T03:44:18.708Z,0.70
2018-02-18T03:46:46.921Z,0.60
2018-02-18T03:49:14.616Z,0.60
2018-02-18T03:51:42.067Z,0.60
2018-02-18T03:54:09.877Z,0.60
2018-02-18T03:56:38.730Z,0.70
2018-02-18T03:59:06.180Z,0.60
2018-02-18T04:01:33.649Z,0.60
2018-02-18T04:04:01.114Z,0.60
2018-02-18T04:06:28.807Z,0.50
2018-02-18T04:08:56.286Z,0.50
2018-02-18T04:11:23.755Z,0.50
2018-02-18T04:13:51.251Z,0.50
2018-02-18T04:16:18.692Z,0.50
2018-02-18T04:18:47.915Z,0.50
2018-02-18T04:21:15.366Z,0.50
2018-02-18T04:23:42.881Z,0.50
2018-02-18T04:26:10.336Z,0.50
2018-02-18T04:28:37.795Z,0.50
2018-02-18T04:31:05.580Z,0.50
2018-02-18T04:33:33.345Z,0.50
2018-02-18T04:36:01.103Z,0.40
2018-02-18T04:38:28.564Z,0.40
2018-02-18T04:40:56.225Z,0.40
2018-02-18T04:43:23.675Z,0.40
2018-02-18T04:45:52.054Z,0.40
2018-02-18T04:48:19.524Z,0.40
2018-02-18T04:50:46.994Z,0.40
2018-02-18T04:53:15.038Z,0.40
2018-02-18T04:55:42.831Z,0.40
2018-02-18T05:01:35.860Z,0.40
2018-02-18T05:04:03.323Z,0.40
2018-02-18T05:06:30.984Z,0.40
2018-02-18T05:08:58.784Z,0.30
2018-02-18T05:11:27.767Z,0.30
2018-02-18T05:13:55.208Z,0.30
2018-02-18T05:16:22.842Z,0.30
2018-02-18T05:18:50.431Z,0.30
2018-02-18T05:21:17.873Z,0.20
2018-02-18T05:23:45.352Z,0.20
2018-02-18T05:26:12.796Z,0.20
2018-02-18T05:28:40.456Z,0.20
2018-02-18T05:31:08.240Z,0.20
2018-02-18T05:33:37.832Z,0.10
2018-02-18T05:36:06.485Z,0.10
2018-02-18T05:38:33.925Z,0.10
2018-02-18T05:41:01.648Z,0.10
2018-02-18T05:43:29.093Z,0.10
2018-02-18T05:45:56.625Z,0.10
2018-02-18T05:48:24.416Z,0.10
2018-02-18T05:50:51.856Z,0.10
2018-02-18T05:53:19.541Z,0.10
2018-02-18T05:55:47.598Z,0.10
2018-02-18T05:58:15.081Z,0.10
2018-02-18T06:00:42.528Z,0.00
2018-02-18T06:03:09.975Z,0.00
2018-02-18T06:05:38.213Z,0.00
2018-02-18T06:08:05.875Z,0.00
2018-02-18T06:10:33.416Z,0.00
2018-02-18T06:13:00.853Z,0.00
2018-02-18T06:15:29.260Z,0.00
2018-02-18T06:17:56.754Z,0.00
2018-02-18T06:20:24.200Z,0.00
2018-02-18T06:22:51.668Z,0.00
2018-02-18T06:25:19.629Z,0.00
2018-02-18T06:27:47.164Z,0.00
2018-02-18T06:30:14.610Z,-0.10
2018-02-18T06:32:43.305Z,-0.10
2018-02-18T06:35:11.270Z,-0.10
2018-02-18T06:37:38.730Z,-0.10
2018-02-18T06:40:06.609Z,-0.20
2018-02-18T06:42:34.052Z,-0.20
2018-02-18T06:45:01.712Z,-0.20
2018-02-18T06:47:29.501Z,-0.20
2018-02-18T06:49:56.986Z,-0.20
2018-02-18T06:52:24.438Z,-0.20
2018-02-18T06:54:52.402Z,-0.20
2018-02-18T06:57:19.864Z,-0.20
2018-02-18T06:59:47.333Z,-0.20
2018-02-18T07:02:15.537Z,-0.10
2018-02-18T07:04:43.007Z,-0.20
2018-02-18T07:07:10.628Z,-0.10
2018-02-18T07:09:39.108Z,-0.20
2018-02-18T07:12:07.326Z,-0.20
2018-02-18T07:14:35.142Z,-0.10
2018-02-18T07:17:03.348Z,-0.20
2018-02-18T07:19:30.833Z,-0.20
2018-02-18T07:21:58.310Z,-0.20
2018-02-18T07:24:25.752Z,-0.10
2018-02-18T07:26:53.227Z,-0.10
2018-02-18T07:29:20.822Z,-0.10
2018-02-18T07:31:48.543Z,-0.10
2018-02-18T07:34:16.503Z,-0.10
2018-02-18T07:36:44.300Z,0.00
2018-02-18T07:39:12.852Z,0.00
2018-02-18T07:41:40.330Z,0.00
2018-02-18T07:44:07.844Z,0.00
2018-02-18T07:46:35.804Z,0.00
2018-02-18T07:49:03.253Z,0.10
2018-02-18T07:51:30.690Z,0.10
2018-02-18T07:53:59.129Z,0.10
2018-02-18T07:56:27.000Z,0.10
2018-02-18T07:58:54.471Z,0.10
2018-02-18T08:01:21.920Z,0.20
2018-02-18T08:03:49.782Z,0.20
2018-02-18T08:06:17.359Z,0.20
2018-02-18T08:08:45.149Z,0.20
2018-02-18T08:11:13.347Z,0.30
2018-02-18T08:13:40.837Z,0.30
2018-02-18T08:16:08.283Z,0.40
2018-02-18T08:18:35.946Z,0.50
2018-02-18T08:21:03.477Z,0.50
2018-02-18T08:23:30.951Z,0.60
2018-02-18T08:25:58.563Z,0.70
2018-02-18T08:28:26.045Z,0.80
2018-02-18T08:30:53.608Z,0.90
2018-02-18T08:33:21.612Z,1.00
2018-02-18T08:35:49.337Z,1.10
2018-02-18T08:38:17.548Z,1.30
2018-02-18T08:40:45.254Z,1.30
2018-02-18T08:43:12.750Z,1.40
2018-02-18T08:45:41.318Z,1.70
2018-02-18T08:48:08.766Z,1.70
2018-02-18T08:50:36.694Z,1.80
2018-02-18T08:53:05.401Z,2.10
2018-02-18T08:55:33.342Z,2.10
2018-02-18T08:58:01.565Z,2.40
2018-02-18T09:00:29.032Z,2.40
2018-02-18T09:02:56.501Z,2.50
2018-02-18T09:05:24.138Z,2.70
2018-02-18T09:07:51.844Z,2.80
2018-02-18T09:10:19.298Z,2.90
2018-02-18T09:12:46.736Z,3.00
2018-02-18T09:15:14.254Z,3.20
2018-02-18T09:17:41.764Z,3.30
2018-02-18T09:20:09.225Z,3.40
2018-02-18T09:22:36.688Z,3.50
2018-02-18T09:25:04.153Z,3.60
2018-02-18T09:27:31.603Z,3.80
2018-02-18T09:29:59.104Z,3.90
2018-02-18T09:32:26.955Z,4.00
2018-02-18T09:34:54.668Z,4.20
2018-02-18T09:37:22.366Z,4.20
2018-02-18T09:39:50.821Z,4.50
2018-02-18T09:42:18.689Z,4.50
2018-02-18T09:44:46.401Z,4.60
2018-02-18T09:47:13.880Z,4.80
2018-02-18T09:49:41.397Z,4.90
2018-02-18T09:52:09.603Z,5.20
2018-02-18T09:54:37.605Z,5.10
2018-02-18T09:57:05.664Z,5.20
2018-02-18T09:59:33.134Z,5.40
2018-02-18T10:02:00.574Z,5.50
2018-02-18T10:04:28.058Z,5.60
2018-02-18T10:06:55.570Z,5.80
2018-02-18T10:09:23.257Z,5.90
2018-02-18T10:11:50.709Z,6.10
2018-02-18T10:14:19.149Z,6.20
2018-02-18T10:16:46.620Z,6.30
2018-02-18T10:19:14.186Z,6.30
2018-02-18T10:21:41.633Z,6.40
2018-02-18T10:24:09.121Z,6.50
2018-02-18T10:26:36.581Z,6.60
2018-02-18T10:29:04.414Z,6.70
2018-02-18T10:31:32.263Z,6.80
2018-02-18T10:34:00.049Z,6.90
2018-02-18T10:36:28.665Z,7.00
2018-02-18T10:38:56.761Z,7.00
2018-02-18T10:41:25.008Z,7.20
2018-02-18T10:43:52.534Z,7.20
2018-02-18T10:46:20.066Z,7.30
2018-02-18T10:48:48.278Z,7.40
2018-02-18T10:51:15.768Z,7.40
2018-02-18T10:53:43.210Z,7.50
2018-02-18T10:56:11.485Z,7.70
2018-02-18T10:58:39.886Z,7.70
2018-02-18T11:01:08.397Z,7.70
2018-02-18T11:03:36.280Z,7.70
2018-02-18T11:06:04.154Z,7.80
2018-02-18T11:08:31.594Z,7.90
2018-02-18T11:10:59.612Z,8.00
2018-02-18T11:13:27.445Z,8.10
2018-02-18T11:15:54.941Z,8.10
2018-02-18T11:18:22.392Z,8.20
2018-02-18T11:20:50.253Z,8.20
2018-02-18T11:23:17.735Z,8.20
2018-02-18T11:25:45.498Z,8.30
2018-02-18T11:28:13.708Z,8.20
2018-02-18T11:30:41.155Z,8.50
2018-02-18T11:33:08.994Z,8.70
2018-02-18T11:35:37.644Z,9.00
2018-02-18T11:38:05.104Z,9.00
2018-02-18T11:40:33.712Z,9.20
2018-02-18T11:43:01.172Z,9.30
2018-02-18T11:45:29.462Z,9.60
2018-02-18T11:47:58.093Z,9.70
2018-02-18T11:50:25.549Z,9.70
2018-02-18T11:52:52.988Z,9.80
2018-02-18T11:55:21.091Z,10.00
2018-02-18T11:57:48.581Z,10.20
2018-02-18T12:00:16.806Z,10.50
2018-02-18T12:02:44.256Z,10.50
2018-02-18T12:05:11.730Z,10.70
2018-02-18T12:07:39.360Z,10.80
2018-02-18T12:10:07.205Z,11.00
2018-02-18T12:12:35.412Z,11.40
2018-02-18T12:15:02.968Z,11.40
2018-02-18T12:17:30.853Z,11.60
2018-02-18T12:19:58.336Z,11.60
2018-02-18T12:22:26.721Z,11.90
2018-02-18T12:24:54.134Z,11.80
2018-02-18T12:27:21.778Z,12.00
2018-02-18T12:29:49.227Z,12.10
2018-02-18T12:32:16.931Z,12.10
2018-02-18T12:34:44.789Z,12.00
2018-02-18T12:37:12.248Z,11.80
2018-02-18T12:39:39.844Z,11.80
2018-02-18T12:42:08.085Z,11.90
2018-02-18T12:44:35.633Z,11.90
2018-02-18T12:47:04.121Z,12.30
2018-02-18T12:49:31.601Z,12.30
2018-02-18T12:51:59.037Z,12.40
2018-02-18T12:54:27.897Z,12.60
2018-02-18T12:56:55.558Z,12.60
2018-02-18T12:59:23.318Z,12.90
2018-02-18T13:01:50.781Z,13.00
2018-02-18T13:04:18.258Z,13.10
2018-02-18T13:06:46.476Z,13.10
2018-02-18T13:09:15.042Z,12.90
2018-02-18T13:11:42.492Z,12.90
2018-02-18T13:14:09.967Z,12.80
2018-02-18T13:16:38.187Z,12.70
2018-02-18T13:19:05.676Z,12.70
2018-02-18T13:21:33.156Z,12.70
2018-02-18T13:24:01.505Z,12.90
2018-02-18T13:26:29.077Z,12.90
2018-02-18T13:28:56.560Z,13.00
2018-02-18T13:31:24.789Z,12.90
2018-02-18T13:33:52.585Z,12.80
2018-02-18T13:36:21.204Z,13.10
2018-02-18T13:38:49.448Z,13.10
2018-02-18T13:41:17.681Z,13.10
2018-02-18T13:43:45.215Z,13.10
2018-02-18T13:46:13.421Z,13.20
2018-02-18T13:48:41.204Z,13.20
2018-02-18T13:51:08.695Z,13.40
2018-02-18T13:53:36.159Z,13.50
2018-02-18T13:56:04.133Z,13.70
2018-02-18T13:58:31.605Z,13.60
2018-02-18T14:00:59.053Z,13.50
2018-02-18T14:03:26.616Z,13.30
2018-02-18T14:05:54.076Z,13.20
2018-02-18T14:08:21.822Z,13.00
2018-02-18T14:10:49.680Z,12.80
2018-02-18T14:13:17.138Z,12.70
2018-02-18T14:15:45.234Z,12.60
2018-02-18T14:18:12.685Z,12.50
2018-02-18T14:20:40.169Z,12.40
2018-02-18T14:23:08.403Z,12.40
2018-02-18T14:25:36.050Z,12.40
2018-02-18T14:28:03.512Z,12.30
2018-02-18T14:30:31.000Z,12.20
2018-02-18T14:32:59.787Z,12.00
2018-02-18T14:35:27.690Z,11.90
2018-02-18T14:37:55.461Z,11.80
2018-02-18T14:40:23.940Z,11.60
2018-02-18T14:43:03.949Z,11.50
2018-02-18T14:45:43.416Z,11.50
2018-02-18T14:48:22.759Z,11.40
2018-02-18T14:51:02.377Z,11.30
2018-02-18T14:53:41.724Z,11.20
2018-02-18T14:56:31.146Z,11.10
2018-02-18T14:58:58.608Z,11.10
2018-02-18T15:01:26.099Z,11.00
2018-02-18T15:03:53.551Z,10.90
2018-02-18T15:06:21.033Z,10.90
2018-02-18T15:08:48.559Z,10.80
2018-02-18T15:11:16.014Z,10.80
2018-02-18T15:13:43.504Z,10.70
2018-02-18T15:16:10.974Z,10.70
2018-02-18T15:18:40.127Z,10.70
2018-02-18T15:21:07.643Z,10.70
2018-02-18T15:23:35.861Z,10.70
2018-02-18T15:26:03.325Z,10.70
2018-02-18T15:28:32.782Z,10.60
2018-02-18T15:31:00.382Z,10.60
2018-02-18T15:33:28.180Z,10.60
2018-02-18T15:35:55.985Z,10.60
2018-02-18T15:38:23.478Z,10.50
2018-02-18T15:40:51.172Z,10.40
2018-02-18T15:43:19.379Z,10.30
2018-02-18T15:45:46.892Z,10.30
2018-02-18T15:48:15.133Z,10.20
2018-02-18T15:50:42.654Z,10.10
2018-02-18T15:53:10.114Z,10.00
2018-02-18T15:55:38.246Z,10.00
2018-02-18T15:58:05.741Z,9.90
2018-02-18T16:00:33.214Z,9.80
2018-02-18T16:03:00.677Z,9.80
2018-02-18T16:05:28.547Z,9.70
2018-02-18T16:07:55.986Z,9.70
2018-02-18T16:10:23.495Z,9.60
2018-02-18T16:12:50.968Z,9.60
2018-02-18T16:15:19.185Z,9.50
2018-02-18T16:17:47.284Z,9.40
2018-02-18T16:20:14.818Z,9.40
2018-02-18T16:22:42.270Z,9.30
2018-02-18T16:25:09.755Z,9.30
2018-02-18T16:27:38.446Z,9.30
2018-02-18T16:30:05.897Z,9.30
2018-02-18T16:32:33.364Z,9.20
2018-02-18T16:35:01.179Z,9.20
2018-02-18T16:37:28.613Z,9.10
2018-02-18T16:39:57.245Z,9.00
2018-02-18T16:42:25.044Z,8.90
2018-02-18T16:44:52.489Z,8.90
2018-02-18T16:47:20.059Z,8.80
2018-02-18T16:49:47.509Z,8.70
2018-02-18T16:52:15.000Z,8.70
2018-02-18T16:54:43.702Z,8.60
2018-02-18T16:57:11.222Z,8.50
2018-02-18T16:59:39.438Z,8.40
2018-02-18T17:02:06.943Z,8.40
2018-02-18T17:04:34.395Z,8.30
2018-02-18T17:07:02.256Z,8.20
2018-02-18T17:09:30.900Z,8.10
2018-02-18T17:11:58.412Z,8.10
2018-02-18T17:14:25.855Z,8.00
2018-02-18T17:16:53.375Z,8.00
2018-02-18T17:19:20.812Z,7.90
2018-02-18T17:21:48.286Z,7.90
2018-02-18T17:24:16.205Z,7.80
2018-02-18T17:26:43.677Z,7.70
2018-02-18T17:29:12.352Z,7.60
2018-02-18T17:31:40.831Z,7.60
2018-02-18T17:34:09.550Z,7.50
2018-02-18T17:36:37.449Z,7.50
2018-02-18T17:39:05.834Z,7.40
2018-02-18T17:41:33.335Z,7.30
2018-02-18T17:44:01.569Z,7.30
2018-02-18T17:46:29.048Z,7.30
2018-02-18T17:48:57.290Z,7.30
2018-02-18T17:51:24.775Z,7.30
2018-02-18T17:53:52.263Z,7.30
2018-02-18T17:56:19.928Z,7.20
2018-02-18T17:58:47.376Z,7.10
2018-02-18T18:01:15.025Z,7.00
2018-02-18T18:03:43.244Z,6.40
2018-02-18T18:06:11.057Z,6.70
2018-02-18T18:08:39.401Z,6.60
2018-02-18T18:11:07.210Z,6.50
2018-02-18T18:13:35.426Z,6.40
2018-02-18T18:16:03.581Z,6.40
2018-02-18T18:18:31.045Z,6.30
2018-02-18T18:20:58.769Z,6.20
2018-02-18T18:23:26.301Z,6.20
2018-02-18T18:25:53.745Z,6.10
2018-02-18T18:28:21.694Z,6.10
2018-02-18T18:30:49.152Z,6.00
2018-02-18T18:33:17.447Z,6.00
2018-02-18T18:35:45.941Z,6.00
2018-02-18T18:38:13.994Z,6.00
2018-02-18T18:40:41.750Z,5.90
2018-02-18T18:43:09.753Z,5.90
2018-02-18T18:45:37.731Z,5.90
2018-02-18T18:48:05.725Z,5.80
2018-02-18T18:50:33.199Z,5.80
2018-02-18T18:53:00.669Z,5.80
2018-02-18T18:55:28.518Z,5.70
2018-02-18T18:57:55.971Z,5.60
2018-02-18T19:00:23.489Z,5.60
2018-02-18T19:02:50.947Z,5.50
2018-02-18T19:05:18.438Z,5.40
2018-02-18T19:07:50.301Z,5.40
2018-02-18T19:10:18.937Z,5.00
2018-02-18T19:12:47.189Z,5.30
2018-02-18T19:15:14.985Z,5.30
2018-02-18T19:17:42.697Z,5.20
2018-02-18T19:20:10.610Z,5.20
2018-02-18T19:22:38.082Z,5.10
2018-02-18T19:25:05.571Z,5.10
2018-02-18T19:27:33.037Z,5.00
2018-02-18T19:30:00.515Z,5.00
2018-02-18T19:32:28.911Z,5.00
2018-02-18T19:34:56.588Z,5.00
2018-02-18T19:37:24.511Z,4.90
2018-02-18T19:39:52.274Z,4.90
2018-02-18T19:42:19.732Z,4.90
2018-02-18T19:44:47.176Z,4.80
2018-02-18T19:47:14.800Z,4.80
2018-02-18T19:49:42.242Z,4.80
2018-02-18T19:52:10.337Z,4.80
2018-02-18T19:54:38.422Z,4.80
2018-02-18T19:57:05.893Z,4.80
2018-02-18T19:59:33.361Z,4.80
2018-02-18T20:02:00.997Z,4.80
2018-02-18T20:04:30.250Z,4.90
2018-02-18T20:06:57.766Z,4.80
2018-02-18T20:09:26.022Z,4.90
2018-02-18T20:11:54.428Z,4.80
2018-02-18T20:14:22.192Z,4.70
2018-02-18T20:16:49.813Z,4.70
2018-02-18T20:19:17.424Z,4.70
2018-02-18T20:21:44.912Z,4.70
2018-02-18T20:24:12.984Z,4.60
2018-02-18T20:26:40.478Z,4.60
2018-02-18T20:29:08.264Z,4.60
2018-02-18T20:31:36.132Z,4.80
2018-02-18T20:34:04.198Z,4.90
2018-02-18T20:36:32.309Z,4.90
2018-02-18T20:39:00.388Z,4.80
2018-02-18T20:41:28.701Z,4.70
2018-02-18T20:43:56.206Z,4.70
2018-02-18T20:46:23.675Z,4.70
2018-02-18T20:48:51.600Z,4.60
2018-02-18T20:51:19.108Z,4.60
2018-02-18T20:53:47.741Z,4.50
2018-02-18T20:56:15.665Z,4.50
2018-02-18T20:58:43.932Z,4.40
2018-02-18T21:01:11.442Z,4.40
2018-02-18T21:03:38.902Z,4.30
2018-02-18T21:06:06.558Z,4.30
2018-02-18T21:08:33.998Z,4.20
2018-02-18T21:11:01.725Z,4.20
2018-02-18T21:13:29.483Z,4.10
2018-02-18T21:15:56.930Z,4.10
2018-02-18T21:18:24.464Z,4.10
2018-02-18T21:20:51.919Z,4.10
2018-02-18T21:23:19.416Z,4.20
2018-02-18T21:25:46.895Z,4.20
2018-02-18T21:28:15.129Z,4.20
2018-02-18T21:30:42.592Z,4.20
2018-02-18T21:33:10.662Z,4.10
2018-02-18T21:35:38.606Z,4.10
2018-02-18T21:38:06.408Z,4.00
2018-02-18T21:40:34.244Z,4.00
2018-02-18T21:43:01.795Z,3.90
2018-02-18T21:45:29.309Z,3.80
2018-02-18T21:47:57.892Z,3.80
2018-02-18T21:50:26.114Z,3.90
2018-02-18T21:52:53.811Z,3.90
2018-02-18T21:55:21.678Z,4.00
2018-02-18T21:57:49.641Z,4.00
2018-02-18T22:00:17.205Z,4.10
2018-02-18T22:02:45.166Z,4.10
2018-02-18T22:05:12.625Z,4.10
2018-02-18T22:07:40.181Z,4.10
2018-02-18T22:10:07.633Z,4.10
2018-02-18T22:12:35.158Z,4.00
2018-02-18T22:15:02.722Z,3.90
2018-02-18T22:17:30.522Z,3.90
2018-02-18T22:19:58.296Z,3.80
2018-02-18T22:22:26.564Z,3.60
2018-02-18T22:24:54.009Z,3.60
2018-02-18T22:27:21.512Z,3.60
2018-02-18T22:29:49.728Z,3.50
2018-02-18T22:32:17.201Z,3.50
2018-02-18T22:34:45.180Z,3.50
2018-02-18T22:37:12.936Z,3.40
2018-02-18T22:39:43.560Z,3.40
2018-02-18T22:42:12.574Z,3.30
2018-02-18T22:44:40.080Z,3.30
2018-02-18T22:47:07.742Z,3.30
2018-02-18T22:49:35.350Z,3.30
2018-02-18T22:52:04.136Z,3.20
2018-02-18T22:54:33.001Z,3.20
2018-02-18T22:57:00.465Z,3.10
2018-02-18T22:59:28.094Z,3.10
2018-02-18T23:01:55.544Z,3.10
2018-02-18T23:04:23.143Z,3.10
2018-02-18T23:06:52.949Z,3.00
2018-02-18T23:09:20.425Z,3.00
2018-02-18T23:11:47.909Z,3.10
2018-02-18T23:14:15.736Z,3.00
2018-02-18T23:23:31.803Z,2.90
2018-02-18T23:26:00.116Z,2.80
2018-02-18T23:28:29.414Z,2.80
2018-02-18T23:30:56.874Z,2.80
2018-02-18T23:33:24.792Z,2.70
2018-02-18T23:35:53.652Z,2.80
2018-02-18T23:38:21.277Z,2.70
2018-02-18T23:40:48.972Z,2.80
2018-02-18T23:43:16.453Z,2.80
2018-02-18T23:45:43.965Z,2.80
2018-02-18T23:48:11.671Z,2.80
2018-02-18T23:50:39.150Z,2.80
2018-02-18T23:53:07.424Z,2.80
2018-02-18T23:55:35.933Z,2.80
2018-02-18T23:58:03.751Z,2.80
